Aérodrome :
LOGIN :

S'inscrire | Disclaimer

   EN    FR    IT 

 










Légende :    VFR   VFR Marginal   IFR   IFR Intensif   IFR Très Intensif
Visi : 
Plafond : 
>= 8 km
>= 3000ft
5 à 8 km
1000 à 3000 ft
1500m à 5 km
500 à 1000 ft
800 à 1500m
200 à 500 ft
< 800m
< 200 ft
Symboles :   Orages  Brouillard  Fortes neiges  Fortes précipitations  Vent > 20 kt
SIGMETs :   Divers  Orages  Givrage  Turbulence  Onde Orograph.  Cendres Volcan.







- Altitude de l'aérodrome : 33 ft
- Code IATA : MHZ


EGUN - RAF Mildenhall

DERNIER METAR :
  • 161856Z 24707KT 9999 FEW025 05/05 A2955 RMK AO2A SLP010 WND DATA ESTMD T00450045 $

METARs EXPIRÉS :
  • 161841Z 24007KT 9999 SCT024 BKN120 05/05 A2955 RMK AO2A SLP010 WND DATA ESTMD $
  • 161831Z 24006KT 9999 BKN024 BKN100 05/05 A2954 RMK AO2A CIG 024V110 BKN024 V FEW SLP007 WND DATA ESTMD $
  • 161801Z 25006KT 9999 FEW032 05/05 A2954 RMK AO2A SLP007 WND DATA ESTMD $
  • 161742Z 26006KT 9999 FEW018 BKN080 05/05 A2954 RMK AO2A RAE31 SLP007 WND DATA ESTMD $
  • 161656Z 29009KT 9999 -RA FEW017 BKN028 05/05 A2955 RMK AO2A SLP010 WND DATA ESTMD P0003 T00530053 $

TAF AMD TAF EGUN
Valide du 16 à 12h jusqu'au 17 à 18h UTC


161608Z 1612/1718 28012G20KT 8000 -RA BKN015 QNH2951INS
TEMPO 1613/1614 BKN008
BECMG 1617/1618 26010G15KT 9999 NSW BKN020 QNH2949INS
BECMG 1702/1703 27012KT 9999 OVC015 QNH2953INS
BECMG 1707/1708 32015G25KT 8000 -RA BKN008 QNH2968INS
BECMG 1714/1715 32010G20KT 9999 NSW BKN010 QNH2987INS TX09/1612Z TN02/1707Z
Pas de NOTAMs connus pour ce terrain.



MET'MAP, la Météo Aéronautique d'un coup d'oeil ! - Copyright ORBIFLY Décembre 2007 - Disclaimer

ORBIFLY MET'MAP TEAM :

Programmation & Développement : Alexandra Zaïnal
Conception & Développement : Baudouin d'Aumeries
Co-Programmation & Développement : Marc-Olivier Méhu
Soutien technique & logistique : Manuel Goepfert

Contact : metmap@orbifly.com




SOURCES & CREDITS :

   NOAA